Observations for PARMA, Italy (LIMP)

LIMP 091950Z 29005KT 3000 BR NSC 08/M00 Q1010   
LIMP 091850Z 28009KT 3000 BR NSC 10/00 Q1009
LIMP 091750Z 29008KT 3000 BR NSC 09/02 Q1009
LIMP 091650Z 24007KT 2500 BR NSC 05/04 Q1009
LIMP 091550Z 24005KT 2500 BR NSC 05/04 Q1009
LIMP 091450Z 30003KT 2500 BR NSC 06/05 Q1009
LIMP 091350Z VRB01KT 2000 BR NSC 06/05 Q1009
LIMP 091250Z 01005KT 2500 BR NSC 06/05 Q1008
LIMP 091150Z VRB02KT 2500 BR NSC 06/06 Q1008
LIMP 091110Z 21004KT 2500 BR NSC 05/05 Q1008
LIMP 091050Z 25006KT 230V290 0500 R20/0800 FG BKN001 03/03 Q1009
LIMP 091005Z 31008KT 0300 R20/0400 FG BKN001 03/03 Q1009
LIMP 090950Z 30004KT 0400 R20/0750 FG BKN001 02/02 Q1009
LIMP 090850Z VRB02KT 0150 R20/0300 FZFG BKN001 M00/M00 Q1008
LIMP 090750Z VRB01KT 0150 R20/0350 FZFG BKN001 M01/M01 Q1008
LIMP 090650Z VRB01KT 0100 R20/0300 FZFG BKN001 M01/M01 Q1008
LIMP 090600Z 02003KT 0150 R20/0400 FZFG BKN001 M01/M01 Q1009